Main page
METAR-TAF:

METAR-TAF

Airports :

Brno, Czech Republic

Brno–Tuřany Airport

latitude: 49-09N, longitude: 016-42E, elevation: 241 m

Current weather observation

The report was made 30 minutes ago, at 02:30 UTC
Wind 1 kt from variable directions
Temperature 11°C
Humidity 76%
Pressure 1024 hPa
Visibility 10 km or more
no clouds below 1500 m and no cumulonimbus

METAR: LKTB 280230Z VRB01KT CAVOK 11/07 Q1024 NOSIG

Time: 05:00 (03:00 UTC)

Forecast

The report was made 4 hours and 0 minutes ago, at 23:00 UTC
Forecast valid from 28 at 00 UTC to 29 at 06 UTC
Wind 2 kt from variable directions
Visibility 10 km or more
no clouds below 1500 m and no cumulonimbus
Temporary
from 28 at 06 UTC to 28 at 18 UTC
Wind 10 kt from the South/Southeast

TAF: LKTB 272300Z 2800/2906 VRB02KT CAVOK TEMPO 2806/2818 15010KT

Weather observations and forecasts of more than 4000 airports (METAR and TAF reports).

The available stations are represented by yellow and red dots on the map.

Hover mouse over dot to see the name of the station.

Then click to see weather observations and forecasts.

To change the map : click on the green buttons with a black cross to zoom in, on the green button with a dash to zoom out, or on the green arrows for adjacent maps.


METAR-TAF: